Time;durP1;ratioP1;P1;durP2;ratioP2;P2;SDS_P1;SDS_P2;PMS_P1;PMS_P2;Temp;Humidity;BMP_temperature;BMP_pressure;BME280_temperature;BME280_humidity;BME280_pressure;Samples;Min_cycle;Max_cycle;Signal;HPM_P1;HPM_P2
2022/03/31 00:01:27;;;;;;;;;51.25;36.00;;;;;10.53;73.89;99800.09;5031761;28;45362;-67
2022/03/31 00:03:52;;;;;;;;;49.75;36.50;;;;;10.50;73.52;99797.66;5036059;28;45320;-67
2022/03/31 00:06:17;;;;;;;;;52.00;37.00;;;;;10.48;73.73;99799.53;5032427;28;45329;-67
2022/03/31 00:08:43;;;;;;;;;40.75;36.25;;;;;10.47;73.39;99789.94;5031631;28;45242;-67
2022/03/31 00:11:08;;;;;;;;;51.75;37.00;;;;;10.44;73.34;99804.13;5031873;28;45476;-67
2022/03/31 00:13:34;;;;;;;;;53.50;36.50;;;;;10.48;73.66;99803.00;5031461;28;46301;-67
2022/03/31 00:15:59;;;;;;;;;42.50;33.00;;;;;10.43;73.31;99794.53;5035216;28;45695;-68
2022/03/31 00:18:27;;;;;;;;;51.50;35.25;;;;;10.42;73.30;99792.84;5033136;28;45483;-68
2022/03/31 00:20:53;;;;;;;;;47.75;36.50;;;;;10.44;73.53;99796.25;5031947;28;45499;-67
2022/03/31 00:23:18;;;;;;;;;42.75;34.50;;;;;10.43;73.75;99794.53;5031378;28;45491;-67
2022/03/31 00:25:44;;;;;;;;;46.25;37.75;;;;;10.45;73.24;99798.78;5031305;28;45495;-67
2022/03/31 00:28:09;;;;;;;;;45.00;32.00;;;;;10.43;73.36;99792.75;5033651;28;45956;-67
2022/03/31 00:30:35;;;;;;;;;37.25;32.75;;;;;10.41;72.88;99792.00;5033941;28;45295;-67
2022/03/31 00:33:01;;;;;;;;;44.00;35.75;;;;;10.35;73.05;99779.22;5031707;28;45447;-67
2022/03/31 00:35:26;;;;;;;;;41.00;32.75;;;;;10.36;72.41;99780.06;5031186;28;45531;-67
2022/03/31 00:37:51;;;;;;;;;39.25;34.75;;;;;10.32;72.12;99778.53;5031531;28;45487;-68
2022/03/31 00:40:19;;;;;;;;;39.00;32.00;;;;;10.27;72.64;99781.44;5034682;28;45519;-67
2022/03/31 00:42:53;;;;;;;;;42.75;32.50;;;;;10.16;72.66;99766.25;5035576;28;45591;-67
2022/03/31 00:45:27;;;;;;;;;37.25;33.25;;;;;10.14;72.63;99775.16;5031960;28;45916;-67
2022/03/31 00:47:54;;;;;;;;;38.75;27.25;;;;;10.16;72.40;99794.28;5031442;28;45389;-67
2022/03/31 00:50:22;;;;;;;;;45.75;34.75;;;;;10.03;72.71;99777.53;5033721;28;45489;-67
2022/03/31 00:52:48;;;;;;;;;39.00;30.75;;;;;9.93;73.09;99767.56;5022527;28;45476;-67
2022/03/31 00:55:16;;;;;;;;;39.75;30.75;;;;;9.89;72.84;99758.16;5032581;28;45584;-67
2022/03/31 00:57:45;;;;;;;;;30.75;28.00;;;;;9.89;72.93;99766.03;5034802;28;45603;-67
2022/03/31 01:00:14;;;;;;;;;39.00;27.25;;;;;9.76;73.14;99757.16;5031366;28;45472;-68
2022/03/31 01:02:41;;;;;;;;;48.75;35.25;;;;;9.77;73.17;99758.00;5030662;28;45377;-67
2022/03/31 01:05:07;;;;;;;;;40.75;32.50;;;;;9.72;73.14;99750.38;5030909;28;45364;-67
2022/03/31 01:07:40;;;;;;;;;29.25;29.00;;;;;9.65;73.09;99744.59;5031227;28;45437;-67
2022/03/31 01:10:07;;;;;;;;;30.50;28.00;;;;;9.67;73.08;99750.63;5033653;28;45588;-67
2022/03/31 01:12:34;;;;;;;;;40.25;35.25;;;;;9.70;73.12;99748.75;5032752;28;46428;-67
2022/03/31 01:15:19;;;;;;;;;38.75;29.50;;;;;9.60;72.65;99737.91;5031056;28;45592;-67
2022/03/31 01:17:49;;;;;;;;;40.00;26.75;;;;;9.65;72.81;99744.59;5030971;28;45546;-68
2022/03/31 01:20:20;;;;;;;;;37.50;31.25;;;;;9.69;73.53;99750.53;5030863;28;45463;-67
2022/03/31 01:22:46;;;;;;;;;35.50;28.25;;;;;9.64;73.40;99735.03;5030312;28;46092;-67
2022/03/31 01:25:12;;;;;;;;;35.75;29.75;;;;;9.71;72.65;99739.94;5032321;28;45456;-67
2022/03/31 01:27:41;;;;;;;;;36.75;30.25;;;;;9.67;73.07;99737.50;5033594;28;45338;-67
2022/03/31 01:30:13;;;;;;;;;41.00;28.75;;;;;9.67;73.02;99726.16;5031416;28;45466;-67
2022/03/31 01:32:39;;;;;;;;;33.50;28.75;;;;;9.67;73.14;99724.38;5016694;28;46625;-67
2022/03/31 01:35:06;;;;;;;;;34.50;28.75;;;;;9.67;73.09;99723.53;5030170;28;45810;-67
2022/03/31 01:37:31;;;;;;;;;33.75;29.75;;;;;9.66;73.05;99720.09;5030492;28;45443;-67
2022/03/31 01:39:57;;;;;;;;;36.25;28.00;;;;;9.71;72.85;99727.69;5034515;28;45391;-67
2022/03/31 01:42:22;;;;;;;;;50.50;30.75;;;;;9.68;73.25;99722.59;5031371;28;46234;-67
2022/03/31 01:44:52;;;;;;;;;37.00;31.75;;;;;9.64;73.30;99719.31;5030075;28;45314;-67
2022/03/31 01:47:17;;;;;;;;;35.50;26.50;;;;;9.64;73.26;99718.47;5030215;28;45427;-67
2022/03/31 01:49:43;;;;;;;;;36.75;27.50;;;;;9.55;73.30;99701.47;5030145;28;45311;-67
2022/03/31 01:52:08;;;;;;;;;37.75;27.50;;;;;9.58;73.34;99717.03;5031975;28;46237;-67
2022/03/31 01:54:34;;;;;;;;;37.75;30.25;;;;;9.55;73.23;99706.72;5032332;28;45358;-67
2022/03/31 01:57:01;;;;;;;;;44.75;33.25;;;;;9.49;73.44;99700.94;5030574;28;45393;-67
2022/03/31 01:59:37;;;;;;;;;50.75;35.00;;;;;9.46;73.46;99704.59;5030111;28;45562;-67
2022/03/31 02:02:04;;;;;;;;;40.25;32.50;;;;;9.47;73.58;99702.81;5029850;28;46443;-67
2022/03/31 02:04:29;;;;;;;;;49.50;34.50;;;;;9.41;73.46;99698.75;5029767;28;45754;-67
2022/03/31 02:06:55;;;;;;;;;41.00;36.00;;;;;9.30;73.72;99680.13;5034085;28;45397;-67
2022/03/31 02:09:20;;;;;;;;;41.25;31.25;;;;;9.32;73.55;99694.84;5030781;28;45339;-67
2022/03/31 02:11:46;;;;;;;;;37.50;33.00;;;;;9.34;73.49;99703.50;5029773;28;45865;-67
2022/03/31 02:14:16;;;;;;;;;49.00;34.50;;;;;9.23;73.97;99684.00;5029925;28;45476;-67
2022/03/31 02:16:41;;;;;;;;;38.50;27.25;;;;;9.24;74.12;99690.94;5029788;28;45342;-67
2022/03/31 02:19:07;;;;;;;;;31.75;29.75;;;;;9.20;73.86;99687.66;5032515;28;45754;-67
2022/03/31 02:21:32;;;;;;;;;57.50;37.50;;;;;9.17;73.89;99686.97;5031711;28;45486;-67
2022/03/31 02:23:58;;;;;;;;;40.25;34.00;;;;;9.10;74.24;99681.22;5030043;28;45343;-67
2022/03/31 02:26:23;;;;;;;;;46.75;36.75;;;;;9.12;74.29;99688.06;5029721;28;45499;-67
2022/03/31 02:28:49;;;;;;;;;43.25;32.00;;;;;9.10;74.19;99687.28;5029970;28;45508;-67
2022/03/31 02:31:14;;;;;;;;;48.00;34.00;;;;;9.11;74.32;99707.34;5031054;28;46499;-67
2022/03/31 02:33:40;;;;;;;;;49.50;39.50;;;;;9.04;74.55;99700.72;5032304;28;45636;-67
2022/03/31 02:36:07;;;;;;;;;46.00;35.50;;;;;9.02;74.71;99693.88;5030203;28;45925;-67
2022/03/31 02:38:34;;;;;;;;;51.50;39.25;;;;;9.00;74.27;99698.34;5030571;28;45509;-67
2022/03/31 02:41:00;;;;;;;;;52.25;36.50;;;;;9.01;74.66;99703.50;5023042;28;45535;-67
2022/03/31 02:43:25;;;;;;;;;46.75;37.50;;;;;8.98;75.03;99703.69;5029363;28;45774;-67
2022/03/31 02:45:51;;;;;;;;;52.25;37.25;;;;;8.94;74.97;99699.53;5034228;28;45404;-67
2022/03/31 02:48:16;;;;;;;;;54.75;38.50;;;;;8.96;75.07;99709.91;5030116;28;45468;-67
2022/03/31 02:50:41;;;;;;;;;53.00;41.00;;;;;8.86;75.11;99699.91;5029162;28;45453;-67
2022/03/31 02:55:51;;;;;;;;;45.25;36.75;;;;;8.84;75.21;99703.56;5029256;28;45427;-67
2022/03/31 02:58:16;;;;;;;;;51.50;42.50;;;;;8.78;75.76;99693.41;5033786;28;45477;-67
2022/03/31 03:00:41;;;;;;;;;60.00;43.25;;;;;8.79;75.61;99700.31;5033339;28;45444;-67
2022/03/31 03:03:08;;;;;;;;;56.33;43.67;;;;;8.82;75.37;99706.25;5012657;28;45474;-67
2022/03/31 03:05:34;;;;;;;;;53.75;40.00;;;;;8.73;75.75;99691.00;5032808;28;45512;-67
2022/03/31 03:08:00;;;;;;;;;52.00;40.00;;;;;8.83;75.99;99714.97;5019082;28;45446;-67
2022/03/31 03:10:25;;;;;;;;;62.75;45.00;;;;;8.67;76.30;99682.63;5032617;28;46528;-67
2022/03/31 03:12:50;;;;;;;;;61.00;44.00;;;;;8.67;76.02;99685.25;5020042;28;45557;-67
2022/03/31 03:15:17;;;;;;;;;55.50;40.75;;;;;8.65;76.21;99694.94;5033171;28;45373;-67
2022/03/31 03:17:44;;;;;;;;;53.50;40.25;;;;;8.56;76.62;99684.03;5032917;28;45471;-67
2022/03/31 03:20:14;;;;;;;;;47.75;41.25;;;;;8.56;76.70;99691.91;5032280;28;45531;-67
2022/03/31 03:22:47;;;;;;;;;56.00;41.25;;;;;8.51;76.00;99680.81;5032169;28;45472;-67
2022/03/31 03:25:15;;;;;;;;;55.00;41.00;;;;;8.48;76.59;99674.88;5034111;28;45465;-67
2022/03/31 03:27:42;;;;;;;;;55.50;41.25;;;;;8.44;76.18;99674.16;5036046;28;45394;-67
2022/03/31 03:30:08;;;;;;;;;63.75;42.50;;;;;8.38;76.17;99669.25;5032883;28;45520;-67
2022/03/31 03:32:36;;;;;;;;;55.75;41.00;;;;;8.31;76.59;99666.06;5031973;28;45432;-67
2022/03/31 03:35:01;;;;;;;;;57.00;43.50;;;;;8.31;76.91;99667.84;5032574;28;45610;-67
2022/03/31 03:37:27;;;;;;;;;57.50;42.00;;;;;8.29;77.16;99669.69;5031989;28;45707;-67
2022/03/31 03:39:52;;;;;;;;;61.25;47.00;;;;;8.22;76.92;99656.06;5036950;28;46424;-67
2022/03/31 03:42:17;;;;;;;;;59.00;42.25;;;;;8.25;76.86;99663.78;5032874;28;45504;-67
2022/03/31 03:44:43;;;;;;;;;60.00;45.00;;;;;8.17;76.89;99654.59;5031910;28;45313;-67
2022/03/31 03:47:08;;;;;;;;;62.75;43.00;;;;;8.16;77.48;99647.69;5031821;28;45602;-67
2022/03/31 03:49:33;;;;;;;;;58.00;44.25;;;;;8.16;77.09;99655.53;5031906;28;45440;-67
2022/03/31 03:51:59;;;;;;;;;64.50;48.75;;;;;8.16;77.38;99663.38;5036016;28;45349;-67
2022/03/31 03:54:25;;;;;;;;;64.00;47.00;;;;;8.09;77.35;99660.19;5033458;28;45536;-67
2022/03/31 03:56:50;;;;;;;;;57.50;43.50;;;;;8.09;77.56;99658.47;5031716;28;45484;-67
2022/03/31 03:59:16;;;;;;;;;62.25;43.50;;;;;8.06;77.65;99661.22;5031809;28;45540;-67
2022/03/31 04:01:41;;;;;;;;;63.50;48.50;;;;;8.16;77.68;99690.41;5031604;28;45349;-67
2022/03/31 04:04:07;;;;;;;;;69.00;50.25;;;;;8.03;77.64;99671.81;5034578;28;45384;-67
2022/03/31 04:06:32;;;;;;;;;70.25;52.00;;;;;8.01;77.89;99672.84;5033953;28;45504;-67
2022/03/31 04:08:57;;;;;;;;;69.75;54.00;;;;;7.99;77.45;99667.69;5032099;28;45548;-67
2022/03/31 04:11:23;;;;;;;;;44.25;25.50;;;;;7.97;77.87;99666.91;5013567;28;45509;-67
2022/03/31 04:13:49;;;;;;;;;71.67;51.00;;;;;7.95;77.73;99668.75;5031380;28;45754;-66
2022/03/31 04:16:15;;;;;;;;;58.00;41.50;;;;;8.04;78.21;99686.63;5033163;28;45414;-66
2022/03/31 04:18:40;;;;;;;;;65.25;47.75;;;;;7.94;77.85;99672.31;5032598;28;46980;-67
2022/03/31 04:21:05;;;;;;;;;58.25;43.25;;;;;7.90;77.81;99672.53;5032215;28;45419;-66
2022/03/31 04:23:31;;;;;;;;;58.25;43.75;;;;;7.85;77.81;99670.97;5031520;28;45548;-67
2022/03/31 04:25:56;;;;;;;;;60.25;45.50;;;;;7.88;77.91;99677.81;5031440;28;45603;-67
2022/03/31 04:28:22;;;;;;;;;62.25;43.00;;;;;7.86;77.86;99671.81;5032062;28;46284;-67
2022/03/31 04:30:47;;;;;;;;;68.00;44.75;;;;;7.82;77.56;99675.50;5035464;28;47814;-67
2022/03/31 04:33:12;;;;;;;;;51.25;41.00;;;;;7.80;77.61;99672.13;5031904;28;45310;-67
2022/03/31 04:35:38;;;;;;;;;65.00;44.50;;;;;7.83;77.83;99683.28;5031448;28;45372;-67
2022/03/31 04:38:04;;;;;;;;;60.50;43.00;;;;;7.84;78.10;99684.97;5031445;28;45325;-67
2022/03/31 04:40:30;;;;;;;;;52.25;41.75;;;;;7.83;77.87;99680.69;5031306;28;45724;-67
2022/03/31 04:42:56;;;;;;;;;66.25;43.00;;;;;7.87;77.82;99683.13;5035179;28;45573;-67
2022/03/31 04:45:21;;;;;;;;;56.50;42.00;;;;;7.82;77.88;99678.13;5032191;28;45445;-67
2022/03/31 04:47:47;;;;;;;;;62.75;43.25;;;;;7.82;77.60;99675.50;5030807;28;45464;-68
2022/03/31 04:50:13;;;;;;;;;57.50;41.75;;;;;7.87;77.46;99689.19;5031434;28;49801;-67
2022/03/31 04:52:39;;;;;;;;;51.75;37.75;;;;;7.86;77.05;99687.50;5031013;28;45536;-68
2022/03/31 04:55:05;;;;;;;;;60.50;48.00;;;;;7.78;77.76;99673.97;5034002;28;45378;-67
2022/03/31 04:57:30;;;;;;;;;60.50;43.25;;;;;7.81;77.37;99684.28;5032801;28;46092;-68
2022/03/31 04:59:55;;;;;;;;;22.00;13.75;;;;;7.78;76.85;99674.81;5031138;28;45499;-68
2022/03/31 05:02:21;;;;;;;;;57.00;41.00;;;;;7.90;77.22;99698.69;5031001;28;45554;-68
2022/03/31 05:04:46;;;;;;;;;64.00;45.75;;;;;7.88;77.05;99696.13;5030795;28;45527;-68
2022/03/31 05:07:11;;;;;;;;;53.00;42.00;;;;;7.78;76.95;99681.81;5032537;28;46389;-69
2022/03/31 05:09:38;;;;;;;;;62.00;45.00;;;;;7.79;77.31;99675.66;5033650;28;45495;-69
2022/03/31 05:12:05;;;;;;;;;59.00;43.25;;;;;7.79;77.43;99683.50;5034148;28;45563;-66
2022/03/31 05:14:30;;;;;;;;;58.50;40.50;;;;;7.71;76.92;99677.78;5030652;28;45549;-68
2022/03/31 05:16:55;;;;;;;;;69.50;47.00;;;;;7.68;76.88;99680.56;5030570;28;45578;-68
2022/03/31 05:19:21;;;;;;;;;61.00;43.00;;;;;7.66;77.09;99674.53;5031269;28;45487;-68
2022/03/31 05:21:46;;;;;;;;;60.00;45.25;;;;;7.60;77.37;99675.69;5034696;28;45583;-67
2022/03/31 05:24:12;;;;;;;;;53.25;44.00;;;;;7.59;77.46;99693.16;5030953;28;45481;-68
2022/03/31 05:26:37;;;;;;;;;61.75;44.50;;;;;7.55;77.06;99681.13;5029696;28;45452;-68
2022/03/31 05:29:02;;;;;;;;;60.75;41.75;;;;;7.58;76.97;99698.47;5028037;28;45421;-68
2022/03/31 05:31:28;;;;;;;;;72.25;49.00;;;;;7.55;77.47;99701.19;5030484;28;45441;-68
2022/03/31 05:33:53;;;;;;;;;58.25;43.75;;;;;7.49;77.48;99689.25;5035064;28;45422;-68
2022/03/31 05:36:19;;;;;;;;;61.00;41.00;;;;;7.50;77.80;99685.72;5031410;28;46208;-68
2022/03/31 05:38:44;;;;;;;;;65.00;44.00;;;;;7.51;77.50;99697.88;5030163;28;45517;-68
2022/03/31 05:41:09;;;;;;;;;61.25;44.75;;;;;7.52;77.56;99698.75;5030305;28;45377;-68
2022/03/31 05:43:35;;;;;;;;;59.67;43.00;;;;;7.51;77.50;99684.81;5030174;28;45520;-67
2022/03/31 05:46:00;;;;;;;;;58.25;43.25;;;;;7.57;77.29;99696.75;5033543;28;45401;-68
2022/03/31 05:48:25;;;;;;;;;65.75;44.50;;;;;7.49;77.49;99688.44;5031632;28;45453;-68
2022/03/31 05:50:51;;;;;;;;;64.00;48.50;;;;;7.56;77.79;99695.88;5030889;28;45428;-68
2022/03/31 05:53:16;;;;;;;;;59.75;47.00;;;;;7.62;77.81;99706.97;5030285;28;47507;-68
2022/03/31 05:55:43;;;;;;;;;63.00;46.00;;;;;7.58;77.70;99701.06;5029906;28;45509;-68
2022/03/31 05:58:08;;;;;;;;;64.00;46.50;;;;;7.60;77.73;99714.91;5032513;28;45695;-68
2022/03/31 06:00:34;;;;;;;;;65.75;46.75;;;;;7.65;78.12;99712.94;5032243;28;45314;-68
2022/03/31 06:02:59;;;;;;;;;63.50;50.00;;;;;7.73;77.69;99723.88;5030394;28;45231;-67
2022/03/31 06:05:25;;;;;;;;;64.75;47.75;;;;;7.82;77.76;99735.66;5029753;28;45519;-68
2022/03/31 06:07:53;;;;;;;;;58.50;47.50;;;;;7.72;77.45;99711.69;5029753;28;45441;-68
2022/03/31 06:10:19;;;;;;;;;71.50;50.00;;;;;7.75;77.22;99706.34;5031210;28;45444;-68
2022/03/31 06:12:45;;;;;;;;;71.75;49.25;;;;;7.88;77.82;99721.44;5033716;28;45525;-68
2022/03/31 06:15:11;;;;;;;;;71.75;54.25;;;;;7.97;77.51;99732.31;5030207;28;45975;-68
2022/03/31 06:17:41;;;;;;;;;78.75;55.25;;;;;8.13;77.68;99752.50;5029689;28;45317;-68
2022/03/31 06:20:08;;;;;;;;;85.75;59.75;;;;;8.06;77.53;99728.41;5029702;28;45460;-68
2022/03/31 06:22:33;;;;;;;;;76.00;56.00;;;;;8.11;77.91;99732.50;5030032;28;45341;-68
2022/03/31 06:24:59;;;;;;;;;67.25;49.75;;;;;8.16;76.66;99727.03;5033129;28;46364;-68
2022/03/31 06:27:24;;;;;;;;;79.75;60.25;;;;;8.22;76.74;99729.34;5030725;28;45516;-68
2022/03/31 06:29:49;;;;;;;;;72.00;53.75;;;;;8.30;76.64;99737.69;5030164;28;45499;-67
2022/03/31 06:32:16;;;;;;;;;81.00;57.75;;;;;8.39;76.85;99738.16;5029506;28;45500;-68
2022/03/31 06:34:41;;;;;;;;;76.75;54.00;;;;;8.41;76.38;99742.41;5029599;28;45436;-68
2022/03/31 06:37:08;;;;;;;;;65.00;49.25;;;;;8.47;76.08;99730.78;5031888;28;45447;-68
2022/03/31 06:39:33;;;;;;;;;68.50;51.50;;;;;8.55;76.66;99736.47;5034607;28;45444;-68
2022/03/31 06:41:59;;;;;;;;;82.00;56.25;;;;;8.63;76.44;99732.53;5033632;28;45532;-68
2022/03/31 06:44:24;;;;;;;;;89.00;65.75;;;;;8.77;76.38;99744.06;5032703;28;45543;-68
2022/03/31 06:46:51;;;;;;;;;81.25;60.00;;;;;8.88;75.52;99744.41;5032991;28;45259;-68
2022/03/31 06:49:16;;;;;;;;;75.25;55.00;;;;;9.00;75.74;99735.88;5034161;28;45419;-67
2022/03/31 06:51:43;;;;;;;;;78.50;56.75;;;;;9.19;75.44;99745.38;5036584;28;47814;-68
2022/03/31 06:54:09;;;;;;;;;78.25;56.25;;;;;9.29;74.69;99741.34;5033280;28;45596;-68
2022/03/31 06:56:35;;;;;;;;;68.00;46.25;;;;;9.24;74.23;99732.88;5033130;28;45361;-68
2022/03/31 06:59:02;;;;;;;;;68.00;49.50;;;;;9.27;74.75;99746.69;5032826;28;45547;-68
2022/03/31 07:01:27;;;;;;;;;69.25;51.25;;;;;9.24;74.50;99733.75;5032756;28;45452;-68
2022/03/31 07:03:53;;;;;;;;;79.25;56.25;;;;;9.28;74.74;99737.88;5034946;28;46228;-68
2022/03/31 07:06:18;;;;;;;;;77.25;53.50;;;;;9.30;74.32;99733.41;5037910;28;45348;-68
2022/03/31 07:08:44;;;;;;;;;70.25;52.50;;;;;9.29;74.40;99720.38;5032612;28;45261;-68
2022/03/31 07:11:11;;;;;;;;;70.75;49.25;;;;;9.28;74.26;99711.66;5033000;28;45413;-68
2022/03/31 07:13:37;;;;;;;;;70.00;52.50;;;;;9.39;74.44;99721.56;5032365;28;46122;-68
2022/03/31 07:16:03;;;;;;;;;67.25;50.00;;;;;9.47;74.26;99716.75;5035281;28;45535;-68
2022/03/31 07:18:29;;;;;;;;;75.50;54.50;;;;;9.53;73.75;99712.97;5034150;28;45457;-68
2022/03/31 07:20:57;;;;;;;;;66.50;49.25;;;;;9.65;73.25;99712.28;5033354;28;45490;-68
2022/03/31 07:23:23;;;;;;;;;66.25;46.00;;;;;9.73;73.33;99712.72;5032139;28;46422;-67
2022/03/31 07:25:50;;;;;;;;;62.25;44.00;;;;;9.92;72.94;99716.00;5032404;28;45241;-68
2022/03/31 07:28:15;;;;;;;;;65.25;49.75;;;;;10.12;72.82;99722.72;5034218;28;45396;-67
2022/03/31 07:30:41;;;;;;;;;69.50;48.50;;;;;10.32;72.16;99728.66;5035785;28;45432;-68
2022/03/31 07:33:08;;;;;;;;;64.50;47.00;;;;;10.50;72.30;99735.47;5032770;28;45424;-68
2022/03/31 07:35:39;;;;;;;;;55.50;42.50;;;;;10.55;71.46;99740.47;5032498;28;45904;-68
2022/03/31 07:38:08;;;;;;;;;65.00;46.50;;;;;10.45;70.89;99722.59;5032085;28;45714;-68
2022/03/31 07:40:36;;;;;;;;;57.25;46.50;;;;;10.38;71.17;99721.25;5032162;28;45442;-68
2022/03/31 07:43:02;;;;;;;;;67.50;45.50;;;;;10.29;70.63;99723.59;5035332;28;46298;-68
2022/03/31 07:45:28;;;;;;;;;68.75;46.75;;;;;10.20;70.80;99732.78;5033710;28;46004;-68
2022/03/31 07:47:55;;;;;;;;;65.50;47.00;;;;;10.20;70.85;99731.00;5036074;28;45499;-68
2022/03/31 07:50:21;;;;;;;;;62.25;47.75;;;;;10.24;71.19;99734.34;5031857;28;45565;-68
2022/03/31 07:52:46;;;;;;;;;66.75;46.25;;;;;10.19;70.87;99721.44;5031675;28;45538;-68
2022/03/31 07:55:13;;;;;;;;;65.00;48.00;;;;;10.14;71.23;99744.50;5033682;28;45589;-68
2022/03/31 07:57:39;;;;;;;;;59.00;45.00;;;;;10.07;71.21;99750.16;5035021;28;45408;-68
2022/03/31 08:00:07;;;;;;;;;62.25;47.00;;;;;10.01;71.10;99740.84;5014371;28;45505;-68
2022/03/31 08:02:32;;;;;;;;;53.50;40.00;;;;;9.94;71.20;99740.38;5031496;28;46762;-68
2022/03/31 08:04:58;;;;;;;;;66.75;49.00;;;;;9.94;71.23;99747.41;5031673;28;45452;-68
2022/03/31 08:07:23;;;;;;;;;72.00;48.75;;;;;9.85;71.34;99758.41;5032312;28;45400;-68
2022/03/31 08:09:48;;;;;;;;;67.75;46.75;;;;;9.76;72.03;99751.91;5036273;28;45485;-68
2022/03/31 08:12:14;;;;;;;;;67.50;43.75;;;;;9.69;71.50;99747.91;5032271;28;46352;-67
2022/03/31 08:14:40;;;;;;;;;69.75;48.75;;;;;9.65;71.85;99759.50;5032734;28;45432;-68
2022/03/31 08:17:05;;;;;;;;;60.50;44.75;;;;;9.55;72.38;99753.94;5026424;28;45565;-68
2022/03/31 08:19:32;;;;;;;;;59.00;42.00;;;;;9.55;72.56;99750.44;5031784;28;45524;-68
2022/03/31 08:22:00;;;;;;;;;63.75;45.75;;;;;9.49;72.18;99763.88;5035199;28;45582;-68
2022/03/31 08:24:26;;;;;;;;;58.00;44.00;;;;;9.39;72.44;99761.75;5032827;28;45390;-68
2022/03/31 08:26:51;;;;;;;;;58.00;45.50;;;;;9.25;73.20;99760.81;5032166;28;45482;-68
2022/03/31 08:29:17;;;;;;;;;64.25;46.00;;;;;9.21;73.32;99764.53;5031551;28;45660;-68
2022/03/31 08:31:43;;;;;;;;;49.75;36.75;;;;;9.15;73.08;99773.56;5031348;28;45659;-68
2022/03/31 08:34:08;;;;;;;;;46.00;37.00;;;;;9.03;73.85;99771.56;5033914;28;45526;-68
2022/03/31 08:36:34;;;;;;;;;33.00;29.25;;;;;8.97;73.83;99783.19;5033691;28;45396;-68
2022/03/31 08:39:00;;;;;;;;;42.75;30.50;;;;;8.91;73.64;99793.16;5031828;28;45298;-68
2022/03/31 08:41:28;;;;;;;;;32.75;25.00;;;;;8.77;72.82;99786.88;5031066;28;45992;-67
2022/03/31 08:43:54;;;;;;;;;30.50;21.25;;;;;8.78;73.39;99813.91;5030957;28;45646;-67
2022/03/31 08:46:21;;;;;;;;;34.00;27.50;;;;;8.53;73.51;99803.78;5032504;28;45425;-68
2022/03/31 08:48:46;;;;;;;;;29.75;27.50;;;;;8.44;73.65;99801.63;5035255;28;45626;-68
2022/03/31 08:51:11;;;;;;;;;74.00;55.00;;;;;8.37;73.08;99819.41;5031399;28;45507;-68
2022/03/31 08:53:37;;;;;;;;;35.00;28.00;;;;;8.25;73.39;99817.34;5031323;28;45270;-67
2022/03/31 08:56:04;;;;;;;;;27.75;23.75;;;;;8.20;73.88;99821.97;5031078;28;45484;-67
2022/03/31 08:58:29;;;;;;;;;34.25;31.75;;;;;8.17;73.39;99827.34;5030840;28;45317;-68
2022/03/31 09:00:55;;;;;;;;;23.50;21.25;;;;;8.14;73.29;99828.31;5032932;28;47094;-68
2022/03/31 09:03:31;;;;;;;;;25.25;20.25;;;;;8.06;73.50;99822.59;5035868;28;45354;-68
2022/03/31 09:05:56;;;;;;;;;20.00;14.75;;;;;7.95;72.47;99827.50;5035234;28;45334;-67
2022/03/31 09:08:22;;;;;;;;;21.25;17.00;;;;;7.87;72.71;99840.06;5030710;28;45455;-67
2022/03/31 09:10:55;;;;;;;;;20.75;15.50;;;;;7.91;72.88;99849.47;5030970;28;46237;-67
2022/03/31 09:13:30;;;;;;;;;20.25;19.25;;;;;7.82;72.38;99859.44;5031550;28;46172;-67
2022/03/31 09:15:58;;;;;;;;;15.25;14.75;;;;;7.81;72.68;99854.28;5019680;28;45504;-67
2022/03/31 09:18:27;;;;;;;;;18.75;11.25;;;;;7.79;71.77;99870.06;5032154;28;45633;-68
2022/03/31 09:20:55;;;;;;;;;13.50;11.00;;;;;7.68;72.40;99876.69;5030578;28;45419;-68
2022/03/31 09:23:25;;;;;;;;;22.50;16.75;;;;;7.59;72.63;99878.78;5030747;28;45985;-68
2022/03/31 09:25:51;;;;;;;;;22.00;16.50;;;;;7.59;72.17;99885.78;5030674;28;45418;-68
2022/03/31 09:28:20;;;;;;;;;22.00;18.25;;;;;7.52;72.13;99885.22;5031982;28;45541;-68
2022/03/31 09:30:50;;;;;;;;;16.75;13.00;;;;;7.58;72.34;99915.47;5034313;28;45526;-67
2022/03/31 09:33:36;;;;;;;;;19.00;16.75;;;;;7.36;72.46;99894.66;5031057;28;45665;-68
2022/03/31 09:36:16;;;;;;;;;43.00;31.50;;;;;7.36;72.43;99897.25;5033354;28;45400;-67
2022/03/31 09:38:53;;;;;;;;;65.25;52.00;;;;;7.22;72.28;99904.84;5030398;28;45600;-68
2022/03/31 09:41:24;;;;;;;;;15.50;9.75;;;;;7.13;73.12;99905.22;5030207;28;46300;-68
2022/03/31 09:43:52;;;;;;;;;26.00;21.75;;;;;7.12;73.71;99916.59;5030153;28;45746;-68
2022/03/31 09:46:36;;;;;;;;;17.75;12.00;;;;;7.07;73.95;99919.38;5031970;28;45529;-68
2022/03/31 09:49:21;;;;;;;;;27.00;24.00;;;;;7.16;73.20;99941.69;5019437;28;45457;-67
2022/03/31 09:52:00;;;;;;;;;9.75;8.75;;;;;6.99;73.29;99939.72;5034462;28;45544;-68
2022/03/31 09:54:29;;;;;;;;;11.00;9.00;;;;;6.87;73.50;99924.56;5031564;28;45886;-67
2022/03/31 09:56:56;;;;;;;;;10.50;9.00;;;;;6.82;73.61;99932.59;5034103;28;45298;-67
2022/03/31 09:59:29;;;;;;;;;8.50;8.50;;;;;6.74;73.70;99925.09;5030035;28;45364;-67
2022/03/31 10:01:54;;;;;;;;;10.50;9.00;;;;;6.72;74.46;99931.25;5030214;28;45850;-67
2022/03/31 10:04:20;;;;;;;;;19.25;18.50;;;;;6.78;75.16;99920.56;5030493;28;45402;-67
2022/03/31 10:06:46;;;;;;;;;11.25;9.00;;;;;6.83;74.18;99923.00;5034094;28;45407;-67
2022/03/31 10:09:12;;;;;;;;;11.00;7.75;;;;;6.88;74.01;99940.19;5030652;28;45480;-67
2022/03/31 10:11:43;;;;;;;;;9.75;8.25;;;;;6.80;74.17;99932.66;5029806;28;46146;-67
2022/03/31 10:14:23;;;;;;;;;20.50;18.50;;;;;6.88;74.55;99957.59;5029806;28;45590;-67
2022/03/31 10:16:55;;;;;;;;;13.75;10.75;;;;;6.83;75.01;99941.28;5029941;28;45424;-67
2022/03/31 10:19:42;;;;;;;;;11.50;8.50;;;;;6.94;74.87;99945.19;5030517;28;45783;-67
2022/03/31 10:25:07;;;;;;;;;12.25;9.50;;;;;7.12;74.85;99966.22;5018574;28;45436;-67
2022/03/31 10:27:35;;;;;;;;;15.50;10.00;;;;;7.13;75.34;99958.31;5032398;28;45532;-68
2022/03/31 10:30:14;;;;;;;;;26.75;20.50;;;;;7.23;74.71;99958.78;5030277;28;45567;-68
2022/03/31 10:32:57;;;;;;;;;25.00;22.75;;;;;7.40;74.61;99977.22;5029242;28;45444;-68
2022/03/31 10:35:27;;;;;;;;;20.50;20.50;;;;;7.35;75.02;99968.72;5029255;28;45833;-68
2022/03/31 10:37:53;;;;;;;;;29.25;22.25;;;;;7.40;74.93;99952.84;5029606;28;45404;-68
2022/03/31 10:40:38;;;;;;;;;21.50;19.00;;;;;7.52;74.50;99950.59;5030628;28;45268;-68
2022/03/31 10:43:11;;;;;;;;;22.00;18.00;;;;;7.70;74.49;99955.91;5018226;28;45532;-68
2022/03/31 10:45:43;;;;;;;;;5.75;4.50;;;;;7.83;74.16;99950.09;5014418;28;45391;-68
2022/03/31 10:48:16;;;;;;;;;41.75;37.00;;;;;7.96;73.81;99950.38;5033526;28;45423;-68
2022/03/31 10:50:42;;;;;;;;;10.00;10.00;;;;;7.93;73.22;99940.03;5029321;28;45330;-68
2022/03/31 10:53:07;;;;;;;;;14.25;11.25;;;;;7.94;72.76;99947.00;5015653;28;47993;-68
2022/03/31 10:55:40;;;;;;;;;10.75;7.50;;;;;7.84;72.37;99940.47;5029352;28;45564;-68
2022/03/31 10:58:25;;;;;;;;;12.50;10.25;;;;;7.92;72.59;99961.91;5032171;28;45467;-68
2022/03/31 11:00:52;;;;;;;;;11.00;7.00;;;;;7.87;72.69;99937.72;5033985;28;45405;-68
2022/03/31 11:03:18;;;;;;;;;10.00;7.00;;;;;7.97;72.95;99933.75;5029741;28;45523;-67
2022/03/31 11:05:43;;;;;;;;;24.00;22.00;;;;;8.13;72.83;99933.91;5029587;28;45536;-68
2022/03/31 11:08:09;;;;;;;;;8.25;8.00;;;;;8.35;72.86;99936.38;5029289;28;45476;-67
2022/03/31 11:11:00;;;;;;;;;7.25;7.25;;;;;8.66;72.30;99948.06;5029188;28;45559;-68
2022/03/31 11:13:35;;;;;;;;;14.25;10.50;;;;;8.78;72.20;99922.16;5025888;28;46251;-68
2022/03/31 11:16:01;;;;;;;;;10.00;10.00;;;;;9.01;71.71;99934.13;5032917;28;45622;-68
2022/03/31 11:18:27;;;;;;;;;10.75;5.00;;;;;9.23;70.81;99940.91;5030791;28;45460;-68
2022/03/31 11:21:00;;;;;;;;;6.00;6.00;;;;;9.38;70.47;99935.75;5029347;28;45413;-68
2022/03/31 11:23:27;;;;;;;;;5.00;4.00;;;;;9.55;70.19;99945.41;5029074;28;45592;-68
2022/03/31 11:25:53;;;;;;;;;4.00;1.00;;;;;9.65;69.37;99945.75;5032123;28;45472;-68
2022/03/31 11:28:19;;;;;;;;;8.00;6.50;;;;;9.70;68.85;99946.38;5033532;28;45735;-68
2022/03/31 11:30:48;;;;;;;;;8.50;8.50;;;;;9.76;69.32;99942.56;5036584;28;45403;-68